createdAt,value
2022-10-18T00:02:20.407Z,37.25
2022-10-18T00:04:47.153Z,36.90
2022-10-18T00:07:13.650Z,38.25
2022-10-18T00:09:40.479Z,46.60
2022-10-18T00:12:07.009Z,33.22
2022-10-18T00:14:33.710Z,31.58
2022-10-18T00:17:00.384Z,30.10
2022-10-18T00:19:29.355Z,35.92
2022-10-18T00:21:56.539Z,34.85
2022-10-18T00:24:24.196Z,30.48
2022-10-18T00:26:50.789Z,31.08
2022-10-18T00:29:17.464Z,27.88
2022-10-18T00:31:44.301Z,32.78
2022-10-18T00:34:16.267Z,26.38
2022-10-18T00:36:44.471Z,28.25
2022-10-18T00:39:21.571Z,26.40
2022-10-18T00:41:49.109Z,26.60
2022-10-18T00:44:15.657Z,34.38
2022-10-18T00:46:47.401Z,21.45
2022-10-18T00:49:28.420Z,23.88
2022-10-18T00:52:22.988Z,24.83
2022-10-18T00:54:52.340Z,26.33
2022-10-18T00:57:19.117Z,28.58
2022-10-18T00:59:46.552Z,26.27
2022-10-18T01:02:15.928Z,23.27
2022-10-18T01:04:42.608Z,22.73
2022-10-18T01:07:34.758Z,21.50
2022-10-18T01:10:24.126Z,29.00
2022-10-18T01:13:12.648Z,24.00
2022-10-18T01:16:01.198Z,27.45
2022-10-18T01:18:41.155Z,25.92
2022-10-18T01:21:22.674Z,23.67
2022-10-18T01:24:08.235Z,21.10
2022-10-18T01:27:03.435Z,25.75
2022-10-18T01:29:50.740Z,20.20
2022-10-18T01:32:24.431Z,23.73
2022-10-18T01:34:54.937Z,23.40
2022-10-18T01:37:22.692Z,25.67
2022-10-18T01:39:53.834Z,26.15
2022-10-18T01:42:21.421Z,17.67
2022-10-18T01:44:50.972Z,20.20
2022-10-18T01:47:19.233Z,28.98
2022-10-18T01:49:46.110Z,24.70
2022-10-18T01:52:14.389Z,19.20
2022-10-18T01:54:46.076Z,22.02
2022-10-18T01:57:24.967Z,22.17
2022-10-18T02:00:14.779Z,29.95
2022-10-18T02:02:53.822Z,25.92
2022-10-18T02:05:40.156Z,23.15
2022-10-18T02:08:22.853Z,21.38
2022-10-18T02:10:56.110Z,25.48
2022-10-18T02:13:25.596Z,31.00
2022-10-18T02:15:58.604Z,27.38
2022-10-18T02:18:34.324Z,21.48
2022-10-18T02:21:03.706Z,30.52
2022-10-18T02:23:32.297Z,23.42
2022-10-18T02:25:59.040Z,25.88
2022-10-18T02:28:26.056Z,23.05
2022-10-18T02:31:23.163Z,32.17
2022-10-18T02:33:57.517Z,23.77
2022-10-18T02:36:29.159Z,28.02
2022-10-18T02:39:03.316Z,32.67
2022-10-18T02:41:31.811Z,28.23
2022-10-18T02:43:58.550Z,29.83
2022-10-18T02:48:51.735Z,102.47
2022-10-18T02:51:18.281Z,80.97
2022-10-18T02:53:44.898Z,72.50
2022-10-18T02:56:11.518Z,174.90
2022-10-18T02:58:38.160Z,77.80
2022-10-18T03:01:04.840Z,85.05
2022-10-18T03:03:31.400Z,78.75
2022-10-18T03:05:58.028Z,93.18
2022-10-18T03:08:25.196Z,79.80
2022-10-18T03:10:52.248Z,72.80
2022-10-18T03:13:19.017Z,42.63
2022-10-18T03:15:47.251Z,40.13
2022-10-18T03:18:14.370Z,83.60
2022-10-18T03:20:41.460Z,91.97
2022-10-18T03:23:08.026Z,61.40
2022-10-18T03:25:34.589Z,67.75
2022-10-18T03:28:01.311Z,64.20
2022-10-18T03:30:27.957Z,36.05
2022-10-18T03:32:54.644Z,63.17
2022-10-18T03:35:21.542Z,41.72
2022-10-18T03:37:48.387Z,49.17
2022-10-18T03:40:15.023Z,36.83
2022-10-18T03:42:41.636Z,70.30
2022-10-18T03:45:08.646Z,67.03
2022-10-18T03:47:35.249Z,50.03
2022-10-18T03:50:02.006Z,95.20
2022-10-18T03:52:28.777Z,117.63
2022-10-18T03:54:55.536Z,98.25
2022-10-18T03:57:22.120Z,45.83
2022-10-18T03:59:48.860Z,55.47
2022-10-18T04:02:15.485Z,49.03
2022-10-18T04:04:42.226Z,48.13
2022-10-18T04:07:08.796Z,56.10
2022-10-18T04:09:35.433Z,23.17
2022-10-18T04:12:01.983Z,57.00
2022-10-18T04:14:28.731Z,53.47
2022-10-18T04:16:55.284Z,55.67
2022-10-18T04:19:21.842Z,38.72
2022-10-18T04:21:48.500Z,43.60
2022-10-18T04:24:17.087Z,34.72
2022-10-18T04:26:43.684Z,29.48
2022-10-18T04:29:10.347Z,59.33
2022-10-18T04:31:37.193Z,63.42
2022-10-18T04:34:04.496Z,42.30
2022-10-18T04:36:31.698Z,46.13
2022-10-18T04:38:58.299Z,36.95
2022-10-18T04:41:24.944Z,38.33
2022-10-18T04:43:51.518Z,55.47
2022-10-18T04:46:18.375Z,49.92
2022-10-18T04:48:45.006Z,88.20
2022-10-18T04:51:11.645Z,67.80
2022-10-18T04:53:38.204Z,124.05
2022-10-18T04:56:05.044Z,161.10
2022-10-18T04:58:32.547Z,126.00
2022-10-18T05:01:00.096Z,89.47
2022-10-18T05:03:26.627Z,195.43
2022-10-18T05:06:01.956Z,175.00
2022-10-18T05:08:31.203Z,119.40
2022-10-18T05:10:57.993Z,103.70
2022-10-18T05:13:24.735Z,121.82
2022-10-18T05:15:51.440Z,74.10
2022-10-18T05:18:18.215Z,74.63
2022-10-18T05:20:44.770Z,93.95
2022-10-18T05:23:11.452Z,69.95
2022-10-18T05:25:39.912Z,125.03
2022-10-18T05:28:10.813Z,54.20
2022-10-18T05:30:47.850Z,45.72
2022-10-18T05:33:14.526Z,45.13
2022-10-18T05:35:41.025Z,69.97
2022-10-18T05:38:08.321Z,37.25
2022-10-18T05:40:34.839Z,61.75
2022-10-18T05:43:01.345Z,114.95
2022-10-18T05:45:27.906Z,49.60
2022-10-18T05:47:54.967Z,30.35
2022-10-18T05:50:21.748Z,63.45
2022-10-18T05:52:48.513Z,35.65
2022-10-18T05:55:15.149Z,39.35
2022-10-18T05:57:41.778Z,38.65
2022-10-18T06:00:09.153Z,29.83
2022-10-18T06:02:35.814Z,31.20
2022-10-18T06:05:02.415Z,54.20
2022-10-18T06:07:29.090Z,23.70
2022-10-18T06:09:55.708Z,33.58
2022-10-18T06:12:22.332Z,32.50
2022-10-18T06:14:49.418Z,68.93
2022-10-18T06:17:16.071Z,41.65
2022-10-18T06:19:44.442Z,33.47
2022-10-18T06:22:11.932Z,39.67
2022-10-18T06:24:38.522Z,28.20
2022-10-18T06:27:11.289Z,36.10
2022-10-18T06:29:41.364Z,70.22
2022-10-18T06:32:08.859Z,49.53
2022-10-18T06:34:35.433Z,39.42
2022-10-18T06:37:02.836Z,35.85
2022-10-18T06:39:29.465Z,48.47
2022-10-18T06:41:56.019Z,30.75
2022-10-18T06:44:22.624Z,35.72
2022-10-18T06:46:49.289Z,30.95
2022-10-18T06:49:19.024Z,31.83
2022-10-18T06:51:46.308Z,28.08
2022-10-18T06:54:18.099Z,32.05
2022-10-18T06:56:45.872Z,23.08
2022-10-18T06:59:12.444Z,19.63
2022-10-18T07:01:40.156Z,18.33
2022-10-18T07:04:06.966Z,24.77
2022-10-18T07:06:33.671Z,16.77
2022-10-18T07:09:02.916Z,18.55
2022-10-18T07:11:29.603Z,20.52
2022-10-18T07:14:04.917Z,16.17
2022-10-18T07:16:32.577Z,17.77
2022-10-18T07:18:59.370Z,16.73
2022-10-18T07:21:26.855Z,15.05
2022-10-18T07:23:54.071Z,17.38
2022-10-18T07:26:27.341Z,14.88
2022-10-18T07:29:00.512Z,17.40
2022-10-18T07:31:28.909Z,16.00
2022-10-18T07:33:55.644Z,12.38
2022-10-18T07:36:22.443Z,18.58
2022-10-18T07:38:49.975Z,13.02
2022-10-18T07:41:16.550Z,12.88
2022-10-18T07:43:48.709Z,16.02
2022-10-18T07:46:17.998Z,12.90
2022-10-18T07:48:44.680Z,16.23
2022-10-18T07:51:12.005Z,15.63
2022-10-18T07:53:39.103Z,14.95
2022-10-18T07:56:09.639Z,14.70
2022-10-18T07:58:36.533Z,20.58
2022-10-18T08:01:06.118Z,17.15
2022-10-18T08:03:33.473Z,27.42
2022-10-18T08:06:00.344Z,16.42
2022-10-18T08:08:27.238Z,16.08
2022-10-18T08:10:54.368Z,17.52
2022-10-18T08:13:21.146Z,14.82
2022-10-18T08:15:47.784Z,21.63
2022-10-18T08:18:14.647Z,15.10
2022-10-18T08:20:45.301Z,11.13
2022-10-18T08:23:12.208Z,18.30
2022-10-18T08:25:38.766Z,11.88
2022-10-18T08:28:05.478Z,12.45
2022-10-18T08:30:34.757Z,13.38
2022-10-18T08:33:01.380Z,13.57
2022-10-18T08:35:27.951Z,16.80
2022-10-18T08:37:54.689Z,16.77
2022-10-18T08:40:21.428Z,16.45
2022-10-18T08:43:04.826Z,12.32
2022-10-18T08:45:42.268Z,13.02
2022-10-18T08:48:21.927Z,14.57
2022-10-18T08:50:50.938Z,15.65
2022-10-18T08:53:27.155Z,15.55
2022-10-18T08:56:16.023Z,12.25
2022-10-18T08:58:44.453Z,14.73
2022-10-18T09:01:24.401Z,13.57
2022-10-18T09:04:12.451Z,10.98
2022-10-18T09:06:44.877Z,13.43
2022-10-18T09:09:35.511Z,16.30
2022-10-18T09:12:51.464Z,17.45
2022-10-18T09:15:42.684Z,11.93
2022-10-18T09:18:47.723Z,12.98
2022-10-18T09:21:20.447Z,12.07
2022-10-18T09:24:03.451Z,11.20
2022-10-18T09:26:36.350Z,15.82
2022-10-18T09:29:29.693Z,14.32
2022-10-18T09:32:04.799Z,13.50
2022-10-18T09:34:36.129Z,9.88
2022-10-18T09:37:03.699Z,13.55
2022-10-18T09:39:35.394Z,16.40
2022-10-18T09:42:26.940Z,14.00
2022-10-18T09:45:04.351Z,17.65
2022-10-18T09:47:58.216Z,13.43
2022-10-18T09:50:30.113Z,10.65
2022-10-18T09:53:25.861Z,11.95
2022-10-18T09:56:05.424Z,11.50
2022-10-18T09:58:44.247Z,7.90
2022-10-18T10:01:20.878Z,8.63
2022-10-18T10:03:47.540Z,8.98
2022-10-18T10:06:16.811Z,13.13
2022-10-18T10:08:48.715Z,6.40
2022-10-18T10:11:33.778Z,7.55
2022-10-18T10:14:19.636Z,8.25
2022-10-18T10:17:03.402Z,5.38
2022-10-18T10:19:38.937Z,5.00
2022-10-18T10:22:14.278Z,4.93
2022-10-18T10:24:53.067Z,5.05
2022-10-18T10:27:43.633Z,5.70
2022-10-18T10:30:39.710Z,5.30
2022-10-18T10:33:07.165Z,2.97
2022-10-18T10:35:56.087Z,5.72
2022-10-18T10:38:25.565Z,5.60
2022-10-18T10:40:52.489Z,6.93
2022-10-18T10:43:37.124Z,2.70
2022-10-18T10:46:16.576Z,8.02
2022-10-18T10:49:21.778Z,4.70
2022-10-18T10:52:02.397Z,5.60
2022-10-18T10:54:39.088Z,3.50
2022-10-18T10:57:12.522Z,3.33
2022-10-18T10:59:45.906Z,6.43
2022-10-18T11:02:15.515Z,5.93
2022-10-18T11:04:44.305Z,5.13
2022-10-18T11:07:13.610Z,3.50
2022-10-18T11:10:15.092Z,2.50
2022-10-18T11:13:09.851Z,5.00
2022-10-18T11:15:43.472Z,3.40
2022-10-18T11:18:24.253Z,5.50
2022-10-18T11:21:11.419Z,4.78
2022-10-18T11:23:40.138Z,2.85
2022-10-18T11:26:12.590Z,7.57
2022-10-18T11:29:01.874Z,6.43
2022-10-18T11:31:40.493Z,9.63
2022-10-18T11:34:25.718Z,5.10
2022-10-18T11:37:28.580Z,4.30
2022-10-18T11:40:13.034Z,4.72
2022-10-18T11:43:04.574Z,5.25
2022-10-18T11:46:03.415Z,3.35
2022-10-18T11:49:00.131Z,2.92
2022-10-18T11:52:07.778Z,5.15
2022-10-18T11:54:52.312Z,5.18
2022-10-18T11:57:39.360Z,7.60
2022-10-18T12:03:14.626Z,3.28
2022-10-18T12:05:44.641Z,6.22
2022-10-18T12:08:26.432Z,7.28
2022-10-18T12:11:05.230Z,2.45
2022-10-18T12:13:35.506Z,4.72
2022-10-18T12:16:07.976Z,3.30
2022-10-18T12:18:36.705Z,7.30
2022-10-18T12:21:05.534Z,2.13
2022-10-18T12:23:49.660Z,7.72
2022-10-18T12:26:17.456Z,3.03
2022-10-18T12:28:57.102Z,3.50
2022-10-18T12:31:34.006Z,2.15
2022-10-18T12:34:05.875Z,3.95
2022-10-18T12:37:07.914Z,2.53
2022-10-18T12:39:44.162Z,2.80
2022-10-18T12:42:29.686Z,3.00
2022-10-18T12:45:33.378Z,3.65
2022-10-18T12:48:04.498Z,5.55
2022-10-18T12:50:43.530Z,5.10
2022-10-18T12:53:10.191Z,2.33
2022-10-18T12:55:39.693Z,4.05
2022-10-18T12:58:32.698Z,5.90
2022-10-18T13:01:04.840Z,4.07
2022-10-18T13:03:55.248Z,1.45
2022-10-18T13:06:22.601Z,3.10
2022-10-18T13:09:20.609Z,2.33
2022-10-18T13:11:47.830Z,3.40
2022-10-18T13:14:31.121Z,4.30
2022-10-18T13:17:06.983Z,2.35
2022-10-18T13:20:23.928Z,3.95
2022-10-18T13:22:58.085Z,3.38
2022-10-18T13:25:44.880Z,4.10
2022-10-18T13:28:53.320Z,1.25
2022-10-18T13:31:29.346Z,2.33
2022-10-18T13:34:16.164Z,2.03
2022-10-18T13:36:43.296Z,2.50
2022-10-18T13:39:20.194Z,2.15
2022-10-18T13:41:46.724Z,4.38
2022-10-18T13:44:31.975Z,3.30
2022-10-18T13:46:58.626Z,2.40
2022-10-18T13:49:31.078Z,3.05
2022-10-18T13:52:35.470Z,2.80
2022-10-18T13:55:24.681Z,4.15
2022-10-18T13:58:10.175Z,5.55
2022-10-18T14:01:11.505Z,4.45
2022-10-18T14:04:06.139Z,1.92
2022-10-18T14:06:40.934Z,3.72
2022-10-18T14:09:32.781Z,7.00
2022-10-18T14:12:25.339Z,3.35
2022-10-18T14:15:06.821Z,7.03
2022-10-18T14:17:44.980Z,3.53
2022-10-18T14:20:28.721Z,5.15
2022-10-18T14:23:15.734Z,4.32
2022-10-18T14:25:43.136Z,7.50
2022-10-18T14:28:31.301Z,7.20
2022-10-18T14:31:15.136Z,6.47
2022-10-18T14:33:58.280Z,2.20
2022-10-18T14:36:36.958Z,2.00
2022-10-18T14:39:05.993Z,2.97
2022-10-18T14:41:49.022Z,5.32
2022-10-18T14:44:15.488Z,2.78
2022-10-18T14:46:44.195Z,4.30
2022-10-18T14:49:12.355Z,2.83
2022-10-18T14:51:41.950Z,3.85
2022-10-18T14:54:16.191Z,3.10
2022-10-18T14:56:43.935Z,7.82
2022-10-18T14:59:20.764Z,4.38
2022-10-18T15:02:12.402Z,8.15
2022-10-18T15:04:38.895Z,6.85
2022-10-18T15:07:08.013Z,3.00
2022-10-18T15:09:37.067Z,1.70
2022-10-18T15:12:06.506Z,2.53
2022-10-18T15:14:34.838Z,2.85
2022-10-18T15:17:26.670Z,6.80
2022-10-18T15:19:55.232Z,1.70
2022-10-18T15:22:31.827Z,7.07
2022-10-18T15:25:31.812Z,3.88
2022-10-18T15:28:00.585Z,3.72
2022-10-18T15:30:36.617Z,3.75
2022-10-18T15:33:05.623Z,3.20
2022-10-18T15:35:35.053Z,1.90
2022-10-18T15:38:15.277Z,5.80
2022-10-18T15:40:42.700Z,2.42
2022-10-18T15:43:24.308Z,2.45
2022-10-18T15:45:54.018Z,8.70
2022-10-18T15:48:27.220Z,5.90
2022-10-18T15:50:56.486Z,3.63
2022-10-18T15:53:23.640Z,8.15
2022-10-18T15:55:56.106Z,4.03
2022-10-18T15:58:29.716Z,4.97
2022-10-18T16:01:00.614Z,9.02
2022-10-18T16:03:28.589Z,2.70
2022-10-18T16:06:03.385Z,2.90
2022-10-18T16:08:31.930Z,4.38
2022-10-18T16:10:59.309Z,4.72
2022-10-18T16:13:26.807Z,5.22
2022-10-18T16:15:55.769Z,5.70
2022-10-18T16:18:23.980Z,5.18
2022-10-18T16:20:50.581Z,5.38
2022-10-18T16:23:20.431Z,7.47
2022-10-18T16:25:47.854Z,6.45
2022-10-18T16:28:20.595Z,4.78
2022-10-18T16:30:54.373Z,4.25
2022-10-18T16:33:21.768Z,6.43
2022-10-18T16:35:48.999Z,4.05
2022-10-18T16:38:45.089Z,2.55
2022-10-18T16:41:13.329Z,3.53
2022-10-18T16:43:39.976Z,8.13
2022-10-18T16:46:07.667Z,5.00
2022-10-18T16:48:34.307Z,8.18
2022-10-18T16:51:01.263Z,2.67
2022-10-18T16:53:28.157Z,5.97
2022-10-18T16:56:02.649Z,3.13
2022-10-18T16:58:31.191Z,3.00
2022-10-18T17:01:01.034Z,7.13
2022-10-18T17:03:29.597Z,10.40
2022-10-18T17:05:56.824Z,3.60
2022-10-18T17:08:25.895Z,4.38
2022-10-18T17:10:55.654Z,3.70
2022-10-18T17:13:24.284Z,3.92
2022-10-18T17:15:52.171Z,4.88
2022-10-18T17:18:22.030Z,3.30
2022-10-18T17:20:49.500Z,6.38
2022-10-18T17:23:16.122Z,3.60
2022-10-18T17:25:57.530Z,6.28
2022-10-18T17:28:31.748Z,9.77
2022-10-18T17:30:58.617Z,7.50
2022-10-18T17:33:25.173Z,4.43
2022-10-18T17:35:51.687Z,7.93
2022-10-18T17:38:18.397Z,4.43
2022-10-18T17:40:45.030Z,4.82
2022-10-18T17:43:13.734Z,4.38
2022-10-18T17:45:54.363Z,6.50
2022-10-18T17:48:21.609Z,6.10
2022-10-18T17:50:48.358Z,6.20
2022-10-18T17:53:16.175Z,3.30
2022-10-18T17:55:42.761Z,9.57
2022-10-18T17:58:10.445Z,3.20
2022-10-18T18:00:37.189Z,4.45
2022-10-18T18:03:04.169Z,4.50
2022-10-18T18:05:33.445Z,4.38
2022-10-18T18:08:03.792Z,5.82
2022-10-18T18:10:33.404Z,3.90
2022-10-18T18:13:00.614Z,6.35
2022-10-18T18:15:27.233Z,4.68
2022-10-18T18:17:57.256Z,5.60
2022-10-18T18:20:24.864Z,3.90
2022-10-18T18:22:51.622Z,8.15
2022-10-18T18:25:18.317Z,4.20
2022-10-18T18:27:44.861Z,9.93
2022-10-18T18:30:12.124Z,2.80
2022-10-18T18:32:38.692Z,4.43
2022-10-18T18:35:05.810Z,4.55
2022-10-18T18:37:32.734Z,8.98
2022-10-18T18:39:59.390Z,5.13
2022-10-18T18:42:25.957Z,4.60
2022-10-18T18:44:52.545Z,5.70
2022-10-18T18:47:21.831Z,4.88
2022-10-18T18:49:49.078Z,8.88
2022-10-18T18:52:15.626Z,4.28
2022-10-18T18:54:42.270Z,6.50
2022-10-18T18:57:08.832Z,6.70
2022-10-18T18:59:35.665Z,11.23
2022-10-18T19:02:02.279Z,7.20
2022-10-18T19:04:29.212Z,5.05
2022-10-18T19:06:57.636Z,7.05
2022-10-18T19:09:26.405Z,3.45
2022-10-18T19:11:54.838Z,6.57
2022-10-18T19:14:23.951Z,4.18
2022-10-18T19:16:55.491Z,9.23
2022-10-18T19:19:24.380Z,6.25
2022-10-18T19:21:56.796Z,6.57
2022-10-18T19:24:25.159Z,5.88
2022-10-18T19:26:54.561Z,7.72
2022-10-18T19:29:32.912Z,6.45
2022-10-18T19:32:01.485Z,7.63
2022-10-18T19:34:29.545Z,6.75
2022-10-18T19:36:57.816Z,3.85
2022-10-18T19:39:31.411Z,5.88
2022-10-18T19:42:00.420Z,9.90
2022-10-18T19:44:30.947Z,7.32
2022-10-18T19:46:57.991Z,5.47
2022-10-18T19:49:24.664Z,5.95
2022-10-18T19:51:51.683Z,9.68
2022-10-18T19:54:18.543Z,4.85
2022-10-18T19:56:45.446Z,10.35
2022-10-18T19:59:13.652Z,7.22
2022-10-18T20:01:40.815Z,7.38
2022-10-18T20:04:09.501Z,3.13
2022-10-18T20:06:37.700Z,5.35
2022-10-18T20:09:06.254Z,4.57
2022-10-18T20:11:33.502Z,3.65
2022-10-18T20:14:00.074Z,4.38
2022-10-18T20:16:30.770Z,5.68
2022-10-18T20:19:07.294Z,2.95
2022-10-18T20:21:37.335Z,4.35
2022-10-18T20:24:05.672Z,7.25
2022-10-18T20:26:33.209Z,4.43
2022-10-18T20:29:00.136Z,9.48
2022-10-18T20:31:29.640Z,3.63
2022-10-18T20:33:59.049Z,6.40
2022-10-18T20:36:26.396Z,7.72
2022-10-18T20:38:53.478Z,7.68
2022-10-18T20:41:28.688Z,8.95
2022-10-18T20:43:57.868Z,10.40
2022-10-18T20:46:25.339Z,4.93
2022-10-18T20:48:53.285Z,11.00
2022-10-18T20:51:20.645Z,5.10
2022-10-18T20:53:48.837Z,10.60
2022-10-18T20:56:17.925Z,6.22
2022-10-18T20:58:45.232Z,3.65
2022-10-18T21:01:23.853Z,4.85
2022-10-18T21:03:52.076Z,3.42
2022-10-18T21:06:24.043Z,4.80
2022-10-18T21:08:59.291Z,11.95
2022-10-18T21:11:27.196Z,4.90
2022-10-18T21:14:07.981Z,6.93
2022-10-18T21:16:35.881Z,5.72
2022-10-18T21:19:06.867Z,3.47
2022-10-18T21:21:34.238Z,9.40
2022-10-18T21:24:03.897Z,9.88
2022-10-18T21:26:34.553Z,7.57
2022-10-18T21:29:02.909Z,6.78
2022-10-18T21:31:31.461Z,5.25
2022-10-18T21:34:00.377Z,3.33
2022-10-18T21:36:29.814Z,3.65
2022-10-18T21:38:56.559Z,4.93
2022-10-18T21:41:23.187Z,3.40
2022-10-18T21:43:52.382Z,3.85
2022-10-18T21:46:21.275Z,3.00
2022-10-18T21:48:50.844Z,7.25
2022-10-18T21:51:19.615Z,3.35
2022-10-18T21:53:48.395Z,2.38
2022-10-18T21:56:20.423Z,5.68
2022-10-18T21:58:47.473Z,3.28
2022-10-18T22:01:21.255Z,3.53
2022-10-18T22:03:49.580Z,6.57
2022-10-18T22:06:17.167Z,6.95
2022-10-18T22:08:49.557Z,4.55
2022-10-18T22:11:16.648Z,5.03
2022-10-18T22:13:44.538Z,2.28
2022-10-18T22:16:14.563Z,7.68
2022-10-18T22:18:42.134Z,4.65
2022-10-18T22:21:11.089Z,4.43
2022-10-18T22:23:43.334Z,5.00
2022-10-18T22:26:13.102Z,6.95
2022-10-18T22:28:40.978Z,6.03
2022-10-18T22:31:14.569Z,3.88
2022-10-18T22:33:41.134Z,3.10
2022-10-18T22:36:08.081Z,5.07
2022-10-18T22:38:35.082Z,8.63
2022-10-18T22:41:06.263Z,6.22
2022-10-18T22:43:34.200Z,6.90
2022-10-18T22:46:05.903Z,5.97
2022-10-18T22:48:33.407Z,3.65
2022-10-18T22:51:00.664Z,3.92
2022-10-18T22:53:27.917Z,3.90
2022-10-18T22:55:54.922Z,5.13
2022-10-18T22:58:21.886Z,3.40
2022-10-18T23:00:48.677Z,3.58
2022-10-18T23:03:16.870Z,9.20
2022-10-18T23:05:45.755Z,4.68
2022-10-18T23:08:14.058Z,3.17
2022-10-18T23:10:42.330Z,5.13
2022-10-18T23:13:10.598Z,3.30
2022-10-18T23:15:39.113Z,4.53
2022-10-18T23:18:05.932Z,5.50
2022-10-18T23:20:32.631Z,5.18
2022-10-18T23:22:59.208Z,4.22
2022-10-18T23:25:27.277Z,6.80
2022-10-18T23:27:54.209Z,4.90
2022-10-18T23:30:20.896Z,7.60
2022-10-18T23:32:47.429Z,3.75
2022-10-18T23:35:14.298Z,2.88
2022-10-18T23:37:40.847Z,4.50
2022-10-18T23:40:08.314Z,4.53
2022-10-18T23:42:34.846Z,3.53
2022-10-18T23:45:01.509Z,3.10
2022-10-18T23:47:28.093Z,4.15
2022-10-18T23:49:56.398Z,4.28
2022-10-18T23:52:23.106Z,4.68
2022-10-18T23:54:49.706Z,4.00
2022-10-18T23:57:16.565Z,3.40
2022-10-18T23:59:43.106Z,4.82
